sensor_id;sensor_type;location;lat;lon;timestamp;pressure;altitude;pressure_sealevel;temperature;humidity
72498;BME280;60522;52.536;5.702;2022-11-04T00:01:44;99993.09;;;18.86;56.66
72498;BME280;60522;52.536;5.702;2022-11-04T00:04:11;100008.25;;;18.87;56.60
72498;BME280;60522;52.536;5.702;2022-11-04T00:06:37;100003.59;;;18.88;56.45
72498;BME280;60522;52.536;5.702;2022-11-04T00:09:05;100009.81;;;18.88;56.70
72498;BME280;60522;52.536;5.702;2022-11-04T00:11:30;99998.84;;;18.81;56.60
72498;BME280;60522;52.536;5.702;2022-11-04T00:14:15;100028.91;;;18.88;56.59
72498;BME280;60522;52.536;5.702;2022-11-04T00:16:41;100033.56;;;18.88;56.73
72498;BME280;60522;52.536;5.702;2022-11-04T00:19:25;100044.88;;;18.90;56.76
72498;BME280;60522;52.536;5.702;2022-11-04T00:21:51;100052.66;;;18.92;56.58
72498;BME280;60522;52.536;5.702;2022-11-04T00:24:35;100042.53;;;18.88;56.76
72498;BME280;60522;52.536;5.702;2022-11-04T00:27:17;100043.72;;;18.91;57.59
72498;BME280;60522;52.536;5.702;2022-11-04T00:30:04;100040.91;;;18.84;57.14
72498;BME280;60522;52.536;5.702;2022-11-04T00:32:32;100040.56;;;18.89;56.85
72498;BME280;60522;52.536;5.702;2022-11-04T00:35:16;100050.69;;;18.88;56.78
72498;BME280;60522;52.536;5.702;2022-11-04T00:37:42;100044.88;;;18.90;56.88
72498;BME280;60522;52.536;5.702;2022-11-04T00:40:10;100038.94;;;18.84;57.00
72498;BME280;60522;52.536;5.702;2022-11-04T00:42:36;100055.75;;;18.90;57.02
72498;BME280;60522;52.536;5.702;2022-11-04T00:45:02;100047.97;;;18.88;56.89
72498;BME280;60522;52.536;5.702;2022-11-04T00:47:27;100049.06;;;18.84;56.97
72498;BME280;60522;52.536;5.702;2022-11-04T00:49:53;100063.94;;;18.90;57.00
72498;BME280;60522;52.536;5.702;2022-11-04T00:52:18;100063.56;;;18.92;57.07
72498;BME280;60522;52.536;5.702;2022-11-04T00:54:43;100069.38;;;18.90;57.02
72498;BME280;60522;52.536;5.702;2022-11-04T00:57:10;100073.69;;;18.91;57.03
72498;BME280;60522;52.536;5.702;2022-11-04T00:59:35;100090.41;;;18.90;57.13
72498;BME280;60522;52.536;5.702;2022-11-04T01:02:01;100089.59;;;18.89;57.14
72498;BME280;60522;52.536;5.702;2022-11-04T01:04:26;100091.56;;;18.88;57.05
72498;BME280;60522;52.536;5.702;2022-11-04T01:06:52;100104.44;;;18.92;57.15
72498;BME280;60522;52.536;5.702;2022-11-04T01:09:17;100105.19;;;18.92;57.22
72498;BME280;60522;52.536;5.702;2022-11-04T01:11:43;100108.72;;;18.93;57.24
72498;BME280;60522;52.536;5.702;2022-11-04T01:14:08;100105.19;;;18.92;57.13
72498;BME280;60522;52.536;5.702;2022-11-04T01:16:34;100117.69;;;18.93;57.29
72498;BME280;60522;52.536;5.702;2022-11-04T01:18:59;100109.44;;;18.86;57.27
72498;BME280;60522;52.536;5.702;2022-11-04T01:21:25;100119.63;;;18.93;57.22
72498;BME280;60522;52.536;5.702;2022-11-04T01:23:50;100108.28;;;18.87;57.24
72498;BME280;60522;52.536;5.702;2022-11-04T01:26:18;100109.06;;;18.87;57.57
72498;BME280;60522;52.536;5.702;2022-11-04T01:28:44;100129.38;;;18.94;57.23
72498;BME280;60522;52.536;5.702;2022-11-04T01:31:15;100121.97;;;18.94;57.77
72498;BME280;60522;52.536;5.702;2022-11-04T01:33:41;100126.66;;;18.94;57.46
72498;BME280;60522;52.536;5.702;2022-11-04T01:36:07;100128.19;;;18.95;57.47
72498;BME280;60522;52.536;5.702;2022-11-04T01:38:33;100125.06;;;18.93;57.42
72498;BME280;60522;52.536;5.702;2022-11-04T01:40:59;100144.94;;;18.93;57.43
72498;BME280;60522;52.536;5.702;2022-11-04T01:46:47;100155.06;;;18.93;57.73
72498;BME280;60522;52.536;5.702;2022-11-04T01:49:25;100148.41;;;18.90;57.55
72498;BME280;60522;52.536;5.702;2022-11-04T01:51:57;100158.53;;;18.93;58.19
72498;BME280;60522;52.536;5.702;2022-11-04T01:54:25;100158.53;;;18.93;57.58
72498;BME280;60522;52.536;5.702;2022-11-04T01:56:50;100165.94;;;18.93;57.68
72498;BME280;60522;52.536;5.702;2022-11-04T01:59:23;100167.09;;;18.92;58.46
72498;BME280;60522;52.536;5.702;2022-11-04T02:01:50;100176.47;;;18.94;57.74
72498;BME280;60522;52.536;5.702;2022-11-04T02:04:16;100169.06;;;18.95;57.70
72498;BME280;60522;52.536;5.702;2022-11-04T02:06:59;100165.94;;;18.93;58.59
72498;BME280;60522;52.536;5.702;2022-11-04T02:09:35;100179.19;;;18.94;58.74
72498;BME280;60522;52.536;5.702;2022-11-04T02:12:01;100185.78;;;18.93;57.79
72498;BME280;60522;52.536;5.702;2022-11-04T02:14:47;100183.06;;;18.93;58.05
72498;BME280;60522;52.536;5.702;2022-11-04T02:17:25;100194.78;;;18.94;58.83
72498;BME280;60522;52.536;5.702;2022-11-04T02:22:45;100198.66;;;18.93;57.89
72498;BME280;60522;52.536;5.702;2022-11-04T02:33:46;100221.59;;;18.92;59.29
72498;BME280;60522;52.536;5.702;2022-11-04T02:41:40;100232.50;;;18.92;59.29
72498;BME280;60522;52.536;5.702;2022-11-04T02:47:07;100238.72;;;18.92;59.22
72498;BME280;60522;52.536;5.702;2022-11-04T02:49:44;100248.06;;;18.91;59.18
72498;BME280;60522;52.536;5.702;2022-11-04T02:52:26;100246.88;;;18.92;59.29
72498;BME280;60522;52.536;5.702;2022-11-04T02:55:00;100253.88;;;18.90;59.00
72498;BME280;60522;52.536;5.702;2022-11-04T02:57:31;100249.97;;;18.87;59.07
72498;BME280;60522;52.536;5.702;2022-11-04T03:00:03;100269.50;;;18.93;58.48
72498;BME280;60522;52.536;5.702;2022-11-04T03:02:39;100274.13;;;18.92;59.44
72498;BME280;60522;52.536;5.702;2022-11-04T03:05:08;100275.72;;;18.93;58.71
72498;BME280;60522;52.536;5.702;2022-11-04T03:07:37;100280.78;;;18.95;58.52
72498;BME280;60522;52.536;5.702;2022-11-04T03:10:11;100268.66;;;18.88;58.73
72498;BME280;60522;52.536;5.702;2022-11-04T03:13:00;100279.59;;;18.92;59.61
72498;BME280;60522;52.536;5.702;2022-11-04T03:15:30;100287.75;;;18.92;58.95
72498;BME280;60522;52.536;5.702;2022-11-04T03:20:57;100294.78;;;18.93;58.85
72498;BME280;60522;52.536;5.702;2022-11-04T03:23:26;100307.63;;;18.93;58.53
72498;BME280;60522;52.536;5.702;2022-11-04T03:25:57;100296.28;;;18.87;59.15
72498;BME280;60522;52.536;5.702;2022-11-04T03:31:14;100322.03;;;18.93;58.96
72498;BME280;60522;52.536;5.702;2022-11-04T03:33:49;100305.22;;;18.87;59.27
72498;BME280;60522;52.536;5.702;2022-11-04T03:36:15;100324.75;;;18.93;58.69
72498;BME280;60522;52.536;5.702;2022-11-04T03:38:41;100333.00;;;18.97;58.71
72498;BME280;60522;52.536;5.702;2022-11-04T03:41:27;100326.34;;;18.94;59.81
72498;BME280;60522;52.536;5.702;2022-11-04T03:43:56;100322.84;;;18.94;58.88
72498;BME280;60522;52.536;5.702;2022-11-04T03:46:21;100333.75;;;18.94;58.84
72498;BME280;60522;52.536;5.702;2022-11-04T03:48:47;100331.34;;;18.92;58.84
72498;BME280;60522;52.536;5.702;2022-11-04T03:51:15;100324.31;;;18.87;58.84
72498;BME280;60522;52.536;5.702;2022-11-04T03:53:40;100323.53;;;18.87;58.82
72498;BME280;60522;52.536;5.702;2022-11-04T04:03:12;100334.50;;;18.94;60.18
72498;BME280;60522;52.536;5.702;2022-11-04T04:05:33;100332.16;;;18.93;60.22
72498;BME280;60522;52.536;5.702;2022-11-04T04:19:01;100345.81;;;18.96;60.45
72498;BME280;60522;52.536;5.702;2022-11-04T04:21:31;100353.22;;;18.96;59.74
72498;BME280;60522;52.536;5.702;2022-11-04T04:24:03;100355.53;;;18.94;59.78
72498;BME280;60522;52.536;5.702;2022-11-04T04:26:51;100358.66;;;18.96;59.41
72498;BME280;60522;52.536;5.702;2022-11-04T04:29:36;100366.84;;;18.96;59.33
72498;BME280;60522;52.536;5.702;2022-11-04T04:32:03;100368.78;;;18.95;59.39
72498;BME280;60522;52.536;5.702;2022-11-04T04:34:31;100359.44;;;18.96;59.73
72498;BME280;60522;52.536;5.702;2022-11-04T04:37:10;100355.16;;;18.95;60.46
72498;BME280;60522;52.536;5.702;2022-11-04T04:39:49;100362.16;;;18.96;60.35
72498;BME280;60522;52.536;5.702;2022-11-04T04:42:34;100357.84;;;18.92;59.33
72498;BME280;60522;52.536;5.702;2022-11-04T04:45:25;100374.25;;;18.95;59.79
72498;BME280;60522;52.536;5.702;2022-11-04T04:47:53;100384.78;;;18.97;59.33
72498;BME280;60522;52.536;5.702;2022-11-04T04:50:19;100387.06;;;18.95;59.30
72498;BME280;60522;52.536;5.702;2022-11-04T04:52:50;100394.50;;;18.98;59.63
72498;BME280;60522;52.536;5.702;2022-11-04T04:55:16;100400.31;;;18.96;59.29
72498;BME280;60522;52.536;5.702;2022-11-04T04:57:42;100385.44;;;18.90;59.42
72498;BME280;60522;52.536;5.702;2022-11-04T05:00:11;100405.78;;;18.96;60.00
72498;BME280;60522;52.536;5.702;2022-11-04T05:02:37;100402.28;;;18.96;59.36
72498;BME280;60522;52.536;5.702;2022-11-04T05:05:03;100402.31;;;18.99;59.40
72498;BME280;60522;52.536;5.702;2022-11-04T05:07:28;100406.56;;;18.97;59.36
72498;BME280;60522;52.536;5.702;2022-11-04T05:09:54;100410.06;;;18.97;59.40
72498;BME280;60522;52.536;5.702;2022-11-04T05:12:19;100415.94;;;18.99;59.41
72498;BME280;60522;52.536;5.702;2022-11-04T05:14:45;100412.03;;;18.97;59.45
72498;BME280;60522;52.536;5.702;2022-11-04T05:17:10;100426.81;;;18.96;59.48
72498;BME280;60522;52.536;5.702;2022-11-04T05:19:36;100430.72;;;18.98;59.41
72498;BME280;60522;52.536;5.702;2022-11-04T05:22:01;100426.03;;;18.95;59.51
72498;BME280;60522;52.536;5.702;2022-11-04T05:24:26;100433.41;;;18.95;59.59
72498;BME280;60522;52.536;5.702;2022-11-04T05:26:52;100430.19;;;18.89;59.50
72498;BME280;60522;52.536;5.702;2022-11-04T05:29:17;100439.28;;;18.97;59.59
72498;BME280;60522;52.536;5.702;2022-11-04T05:31:43;100435.34;;;18.94;59.65
72498;BME280;60522;52.536;5.702;2022-11-04T05:34:10;100440.81;;;18.98;59.71
72498;BME280;60522;52.536;5.702;2022-11-04T05:36:36;100444.28;;;18.95;59.59
72498;BME280;60522;52.536;5.702;2022-11-04T05:39:02;100436.06;;;18.91;59.54
72498;BME280;60522;52.536;5.702;2022-11-04T05:41:28;100442.38;;;18.95;59.63
72498;BME280;60522;52.536;5.702;2022-11-04T05:43:55;100448.22;;;18.97;59.71
72498;BME280;60522;52.536;5.702;2022-11-04T05:46:21;100445.09;;;18.95;59.65
72498;BME280;60522;52.536;5.702;2022-11-04T05:48:47;100443.56;;;18.98;59.57
72498;BME280;60522;52.536;5.702;2022-11-04T05:51:18;100447.09;;;18.98;60.32
72498;BME280;60522;52.536;5.702;2022-11-04T05:53:44;100440.34;;;18.92;59.70
72498;BME280;60522;52.536;5.702;2022-11-04T05:56:10;100450.19;;;18.97;59.55
72498;BME280;60522;52.536;5.702;2022-11-04T05:58:35;100459.91;;;18.98;59.75
72498;BME280;60522;52.536;5.702;2022-11-04T06:03:52;100457.19;;;18.98;59.70
72498;BME280;60522;52.536;5.702;2022-11-04T06:06:19;100464.63;;;19.01;59.77
72498;BME280;60522;52.536;5.702;2022-11-04T06:08:44;100473.16;;;18.99;59.75
72498;BME280;60522;52.536;5.702;2022-11-04T06:11:10;100468.41;;;18.93;59.83
72498;BME280;60522;52.536;5.702;2022-11-04T06:13:35;100479.72;;;18.95;59.57
72498;BME280;60522;52.536;5.702;2022-11-04T06:16:00;100485.25;;;18.98;59.72
72498;BME280;60522;52.536;5.702;2022-11-04T06:18:26;100486.78;;;18.99;59.89
72498;BME280;60522;52.536;5.702;2022-11-04T06:21:07;100473.84;;;18.93;60.95
72498;BME280;60522;52.536;5.702;2022-11-04T06:23:33;100487.13;;;18.94;59.89
72498;BME280;60522;52.536;5.702;2022-11-04T06:25:58;100494.56;;;18.97;59.85
72498;BME280;60522;52.536;5.702;2022-11-04T06:28:24;100495.34;;;18.98;60.03
72498;BME280;60522;52.536;5.702;2022-11-04T06:30:49;100494.56;;;18.97;59.86
72498;BME280;60522;52.536;5.702;2022-11-04T06:33:14;100500.00;;;18.97;59.88
72498;BME280;60522;52.536;5.702;2022-11-04T06:35:40;100496.13;;;18.98;59.93
72498;BME280;60522;52.536;5.702;2022-11-04T06:38:05;100508.97;;;18.98;59.91
72498;BME280;60522;52.536;5.702;2022-11-04T06:40:30;100509.75;;;18.98;59.95
72498;BME280;60522;52.536;5.702;2022-11-04T06:42:56;100510.91;;;18.97;59.86
72498;BME280;60522;52.536;5.702;2022-11-04T06:45:21;100508.19;;;18.97;60.03
72498;BME280;60522;52.536;5.702;2022-11-04T06:47:47;100519.50;;;18.99;59.99
72498;BME280;60522;52.536;5.702;2022-11-04T06:50:12;100517.50;;;18.96;60.01
72498;BME280;60522;52.536;5.702;2022-11-04T06:52:38;100512.06;;;18.96;59.88
72498;BME280;60522;52.536;5.702;2022-11-04T06:55:04;100515.59;;;18.97;60.04
72498;BME280;60522;52.536;5.702;2022-11-04T06:57:30;100533.13;;;18.99;59.95
72498;BME280;60522;52.536;5.702;2022-11-04T06:59:55;100536.22;;;18.98;59.98
72498;BME280;60522;52.536;5.702;2022-11-04T07:02:21;100535.41;;;18.94;60.09
72498;BME280;60522;52.536;5.702;2022-11-04T07:04:46;100545.25;;;19.02;60.10
72498;BME280;60522;52.536;5.702;2022-11-04T07:07:11;100548.75;;;19.02;60.07
72498;BME280;60522;52.536;5.702;2022-11-04T07:09:37;100555.78;;;19.03;60.04
72498;BME280;60522;52.536;5.702;2022-11-04T07:12:02;100547.56;;;19.00;60.12
72498;BME280;60522;52.536;5.702;2022-11-04T07:14:28;100551.91;;;19.04;59.87
72498;BME280;60522;52.536;5.702;2022-11-04T07:16:53;100544.38;;;18.98;59.67
72498;BME280;60522;52.536;5.702;2022-11-04T07:19:18;100554.56;;;19.01;59.52
72498;BME280;60522;52.536;5.702;2022-11-04T07:21:44;100569.41;;;19.03;59.31
72498;BME280;60522;52.536;5.702;2022-11-04T07:24:09;100562.72;;;19.01;59.33
72498;BME280;60522;52.536;5.702;2022-11-04T07:26:35;100569.81;;;19.05;59.21
72498;BME280;60522;52.536;5.702;2022-11-04T07:29:00;100589.34;;;19.08;59.02
72498;BME280;60522;52.536;5.702;2022-11-04T07:31:26;100598.66;;;19.07;58.06
72498;BME280;60522;52.536;5.702;2022-11-04T07:33:52;100599.25;;;18.96;57.94
72498;BME280;60522;52.536;5.702;2022-11-04T07:36:18;100598.72;;;18.87;57.78
72498;BME280;60522;52.536;5.702;2022-11-04T07:38:44;100594.94;;;18.72;57.79
72498;BME280;60522;52.536;5.702;2022-11-04T07:41:10;100603.09;;;18.72;57.62
72498;BME280;60522;52.536;5.702;2022-11-04T07:43:35;100606.50;;;18.65;57.53
72498;BME280;60522;52.536;5.702;2022-11-04T07:46:06;100610.31;;;18.61;57.25
72498;BME280;60522;52.536;5.702;2022-11-04T07:48:31;100618.41;;;18.57;57.38
72498;BME280;60522;52.536;5.702;2022-11-04T07:50:58;100624.22;;;18.56;57.17
72498;BME280;60522;52.536;5.702;2022-11-04T07:53:25;100621.84;;;18.54;57.00
72498;BME280;60522;52.536;5.702;2022-11-04T07:55:50;100615.28;;;18.55;57.09
72498;BME280;60522;52.536;5.702;2022-11-04T07:58:18;100622.28;;;18.56;56.39
72498;BME280;60522;52.536;5.702;2022-11-04T08:00:43;100628.53;;;18.57;56.72
72498;BME280;60522;52.536;5.702;2022-11-04T08:03:09;100619.53;;;18.56;56.57
72498;BME280;60522;52.536;5.702;2022-11-04T08:05:34;100621.13;;;18.57;56.46
72498;BME280;60522;52.536;5.702;2022-11-04T08:08:00;100627.00;;;18.59;56.27
72498;BME280;60522;52.536;5.702;2022-11-04T08:10:25;100633.63;;;18.58;56.32
72498;BME280;60522;52.536;5.702;2022-11-04T08:12:51;100634.38;;;18.59;56.23
72498;BME280;60522;52.536;5.702;2022-11-04T08:15:17;100637.47;;;18.57;56.06
72498;BME280;60522;52.536;5.702;2022-11-04T08:17:42;100640.63;;;18.59;56.02
72498;BME280;60522;52.536;5.702;2022-11-04T08:20:08;100634.75;;;18.57;55.94
72498;BME280;60522;52.536;5.702;2022-11-04T08:22:33;100627.72;;;18.56;56.06
72498;BME280;60522;52.536;5.702;2022-11-04T08:24:59;100638.34;;;18.61;55.90
72498;BME280;60522;52.536;5.702;2022-11-04T08:27:24;100635.66;;;18.65;55.77
72498;BME280;60522;52.536;5.702;2022-11-04T08:29:50;100630.56;;;18.63;55.72
72498;BME280;60522;52.536;5.702;2022-11-04T08:32:16;100641.91;;;18.65;55.79
72498;BME280;60522;52.536;5.702;2022-11-04T08:34:41;100649.72;;;18.67;55.65
72498;BME280;60522;52.536;5.702;2022-11-04T08:37:06;100649.00;;;18.70;55.67
72498;BME280;60522;52.536;5.702;2022-11-04T08:39:32;100651.38;;;18.72;55.43
72498;BME280;60522;52.536;5.702;2022-11-04T08:41:57;100654.88;;;18.72;55.60
72498;BME280;60522;52.536;5.702;2022-11-04T08:44:22;100657.53;;;18.68;55.55
72498;BME280;60522;52.536;5.702;2022-11-04T08:46:48;100648.78;;;18.59;55.55
72498;BME280;60522;52.536;5.702;2022-11-04T08:49:14;100659.03;;;18.66;55.52
72498;BME280;60522;52.536;5.702;2022-11-04T08:51:42;100657.81;;;18.63;54.87
72498;BME280;60522;52.536;5.702;2022-11-04T08:54:09;100664.44;;;18.62;55.53
72498;BME280;60522;52.536;5.702;2022-11-04T08:56:36;100658.47;;;18.57;55.24
72498;BME280;60522;52.536;5.702;2022-11-04T08:59:02;100674.09;;;18.60;55.52
72498;BME280;60522;52.536;5.702;2022-11-04T09:01:31;100663.50;;;18.55;55.40
72498;BME280;60522;52.536;5.702;2022-11-04T09:03:56;100679.91;;;18.58;55.57
72498;BME280;60522;52.536;5.702;2022-11-04T09:06:24;100666.94;;;18.51;55.27
72498;BME280;60522;52.536;5.702;2022-11-04T09:08:51;100681.06;;;18.57;55.56
72498;BME280;60522;52.536;5.702;2022-11-04T09:11:16;100689.22;;;18.57;55.46
72498;BME280;60522;52.536;5.702;2022-11-04T09:13:42;100671.97;;;18.49;55.57
72498;BME280;60522;52.536;5.702;2022-11-04T09:16:10;100688.34;;;18.53;55.15
72498;BME280;60522;52.536;5.702;2022-11-04T09:18:36;100678.53;;;18.48;55.38
72498;BME280;60522;52.536;5.702;2022-11-04T09:21:04;100688.72;;;18.51;55.07
72498;BME280;60522;52.536;5.702;2022-11-04T09:23:30;100682.50;;;18.51;55.46
72498;BME280;60522;52.536;5.702;2022-11-04T09:25:56;100691.44;;;18.51;55.28
72498;BME280;60522;52.536;5.702;2022-11-04T09:28:23;100691.53;;;18.55;55.29
72498;BME280;60522;52.536;5.702;2022-11-04T09:30:49;100713.31;;;18.55;55.29
72498;BME280;60522;52.536;5.702;2022-11-04T09:33:15;100702.06;;;18.57;55.33
72498;BME280;60522;52.536;5.702;2022-11-04T09:35:40;100708.69;;;18.59;55.30
72498;BME280;60522;52.536;5.702;2022-11-04T09:38:06;100701.69;;;18.58;55.22
72498;BME280;60522;52.536;5.702;2022-11-04T09:40:33;100713.09;;;18.64;54.94
72498;BME280;60522;52.536;5.702;2022-11-04T09:45:33;100727.56;;;18.68;55.19
72498;BME280;60522;52.536;5.702;2022-11-04T09:48:06;100720.09;;;18.65;54.89
72498;BME280;60522;52.536;5.702;2022-11-04T09:50:49;100745.63;;;18.76;54.29
72498;BME280;60522;52.536;5.702;2022-11-04T09:53:16;100733.59;;;18.77;55.05
72498;BME280;60522;52.536;5.702;2022-11-04T09:55:53;100733.59;;;18.77;54.18
72498;BME280;60522;52.536;5.702;2022-11-04T09:58:20;100742.59;;;18.81;55.08
72498;BME280;60522;52.536;5.702;2022-11-04T10:01:05;100745.78;;;18.83;54.08
72498;BME280;60522;52.536;5.702;2022-11-04T10:11:26;100758.00;;;18.90;54.20
72498;BME280;60522;52.536;5.702;2022-11-04T10:19:53;100760.00;;;18.93;53.70
72498;BME280;60522;52.536;5.702;2022-11-04T10:22:33;100768.16;;;18.93;53.73
72498;BME280;60522;52.536;5.702;2022-11-04T10:25:15;100774.41;;;18.93;54.30
72498;BME280;60522;52.536;5.702;2022-11-04T10:27:45;100777.94;;;18.94;54.28
72498;BME280;60522;52.536;5.702;2022-11-04T10:35:25;100803.97;;;18.91;54.62
72498;BME280;60522;52.536;5.702;2022-11-04T10:37:54;100785.59;;;18.88;54.68
72498;BME280;60522;52.536;5.702;2022-11-04T10:40:26;100800.78;;;18.89;53.76
72498;BME280;60522;52.536;5.702;2022-11-04T10:42:54;100790.69;;;18.90;54.82
72498;BME280;60522;52.536;5.702;2022-11-04T10:45:26;100785.97;;;18.86;54.44
72498;BME280;60522;52.536;5.702;2022-11-04T10:48:15;100785.59;;;18.88;54.04
72498;BME280;60522;52.536;5.702;2022-11-04T10:50:53;100785.44;;;18.81;54.32
72498;BME280;60522;52.536;5.702;2022-11-04T10:53:22;100798.31;;;18.84;54.76
72498;BME280;60522;52.536;5.702;2022-11-04T10:56:13;100805.38;;;18.85;54.38
72498;BME280;60522;52.536;5.702;2022-11-04T10:58:44;100808.44;;;18.83;54.64
72498;BME280;60522;52.536;5.702;2022-11-04T11:01:36;100823.22;;;18.82;54.37
72498;BME280;60522;52.536;5.702;2022-11-04T11:04:06;100818.47;;;18.79;54.92
72498;BME280;60522;52.536;5.702;2022-11-04T11:06:33;100847.31;;;18.80;55.19
72498;BME280;60522;52.536;5.702;2022-11-04T11:09:23;100840.28;;;18.79;54.70
72498;BME280;60522;52.536;5.702;2022-11-04T11:11:59;100859.72;;;18.78;55.29
72498;BME280;60522;52.536;5.702;2022-11-04T11:17:16;100861.91;;;18.72;55.36
72498;BME280;60522;52.536;5.702;2022-11-04T11:20:02;100859.91;;;18.69;54.79
72498;BME280;60522;52.536;5.702;2022-11-04T11:22:41;100854.81;;;18.67;55.63
72498;BME280;60522;52.536;5.702;2022-11-04T11:25:23;100849.72;;;18.66;55.07
72498;BME280;60522;52.536;5.702;2022-11-04T11:30:31;100841.38;;;18.59;55.12
72498;BME280;60522;52.536;5.702;2022-11-04T11:33:01;100850.69;;;18.58;55.46
72498;BME280;60522;52.536;5.702;2022-11-04T11:35:38;100849.50;;;18.55;55.23
72498;BME280;60522;52.536;5.702;2022-11-04T11:38:35;100859.69;;;18.58;54.88
72498;BME280;60522;52.536;5.702;2022-11-04T11:41:11;100868.97;;;18.57;55.19
72498;BME280;60522;52.536;5.702;2022-11-04T11:43:41;100863.38;;;18.50;55.52
72498;BME280;60522;52.536;5.702;2022-11-04T11:46:07;100872.00;;;18.52;55.83
72498;BME280;60522;52.536;5.702;2022-11-04T11:48:49;100879.47;;;18.55;55.42
72498;BME280;60522;52.536;5.702;2022-11-04T11:51:27;100878.75;;;18.58;55.81
72498;BME280;60522;52.536;5.702;2022-11-04T11:54:14;100884.72;;;18.64;55.46
72498;BME280;60522;52.536;5.702;2022-11-04T11:56:53;100875.81;;;18.67;55.65
72498;BME280;60522;52.536;5.702;2022-11-04T11:59:36;100882.84;;;18.68;55.70
72498;BME280;60522;52.536;5.702;2022-11-04T12:02:26;100873.47;;;18.65;55.70
72498;BME280;60522;52.536;5.702;2022-11-04T12:04:54;100860.81;;;18.57;55.77
72498;BME280;60522;52.536;5.702;2022-11-04T12:10:35;100862.56;;;18.65;55.68
72498;BME280;60522;52.536;5.702;2022-11-04T12:13:15;100878.19;;;18.68;55.57
72498;BME280;60522;52.536;5.702;2022-11-04T12:21:25;100890.16;;;18.64;55.76
72498;BME280;60522;52.536;5.702;2022-11-04T12:29:44;100885.56;;;18.68;56.14
72498;BME280;60522;52.536;5.702;2022-11-04T12:40:26;100898.03;;;18.69;56.02
72498;BME280;60522;52.536;5.702;2022-11-04T12:43:21;100898.34;;;18.64;55.89
72498;BME280;60522;52.536;5.702;2022-11-04T12:46:11;100904.19;;;18.66;55.99
72498;BME280;60522;52.536;5.702;2022-11-04T12:54:49;100910.00;;;18.64;55.36
72498;BME280;60522;52.536;5.702;2022-11-04T12:56:51;100911.50;;;18.62;55.75
72498;BME280;60522;52.536;5.702;2022-11-04T13:02:29;100922.41;;;18.62;55.21
72498;BME280;60522;52.536;5.702;2022-11-04T13:05:02;100922.31;;;18.58;55.58
72498;BME280;60522;52.536;5.702;2022-11-04T13:07:32;100917.13;;;18.53;55.52
72498;BME280;60522;52.536;5.702;2022-11-04T13:10:05;100912.03;;;18.51;55.84
72498;BME280;60522;52.536;5.702;2022-11-04T13:12:41;100919.84;;;18.53;56.14
72498;BME280;60522;52.536;5.702;2022-11-04T13:15:19;100928.47;;;18.55;55.95
72498;BME280;60522;52.536;5.702;2022-11-04T13:17:49;100930.75;;;18.53;55.83
72498;BME280;60522;52.536;5.702;2022-11-04T13:20:39;100937.78;;;18.54;55.82
72498;BME280;60522;52.536;5.702;2022-11-04T13:23:14;100942.81;;;18.52;55.74
72498;BME280;60522;52.536;5.702;2022-11-04T13:25:45;100946.31;;;18.52;55.90
72498;BME280;60522;52.536;5.702;2022-11-04T13:28:17;100940.88;;;18.52;56.04
72498;BME280;60522;52.536;5.702;2022-11-04T13:30:58;100947.78;;;18.50;55.90
72498;BME280;60522;52.536;5.702;2022-11-04T13:36:23;100955.72;;;18.55;56.08
72498;BME280;60522;52.536;5.702;2022-11-04T13:39:17;100961.94;;;18.56;56.10
72498;BME280;60522;52.536;5.702;2022-11-04T13:44:34;100973.38;;;18.61;56.60
72498;BME280;60522;52.536;5.702;2022-11-04T13:47:04;100975.75;;;18.63;57.10
72498;BME280;60522;52.536;5.702;2022-11-04T13:49:32;100972.72;;;18.68;57.11
72498;BME280;60522;52.536;5.702;2022-11-04T13:52:11;100972.38;;;18.69;58.11
72498;BME280;60522;52.536;5.702;2022-11-04T13:55:06;100986.00;;;18.69;56.54
72498;BME280;60522;52.536;5.702;2022-11-04T13:58:22;100985.50;;;18.64;55.99
72498;BME280;60522;52.536;5.702;2022-11-04T14:06:02;101000.00;;;18.52;56.03
72498;BME280;60522;52.536;5.702;2022-11-04T14:08:29;101001.91;;;18.51;55.93
72498;BME280;60522;52.536;5.702;2022-11-04T14:16:11;100997.16;;;18.48;55.80
72498;BME280;60522;52.536;5.702;2022-11-04T14:18:48;100999.91;;;18.48;55.57
72498;BME280;60522;52.536;5.702;2022-11-04T14:21:19;101003.78;;;18.47;55.65
72498;BME280;60522;52.536;5.702;2022-11-04T14:23:51;101010.00;;;18.48;55.59
72498;BME280;60522;52.536;5.702;2022-11-04T14:26:20;101010.34;;;18.46;55.82
72498;BME280;60522;52.536;5.702;2022-11-04T14:31:38;101012.53;;;18.41;55.43
72498;BME280;60522;52.536;5.702;2022-11-04T14:34:05;101015.28;;;18.41;55.81
72498;BME280;60522;52.536;5.702;2022-11-04T14:36:37;101014.50;;;18.40;55.42
72498;BME280;60522;52.536;5.702;2022-11-04T14:39:20;101016.66;;;18.34;55.59
72498;BME280;60522;52.536;5.702;2022-11-04T14:42:02;101010.78;;;18.32;55.81
72498;BME280;60522;52.536;5.702;2022-11-04T14:44:34;101021.34;;;18.34;55.56
72498;BME280;60522;52.536;5.702;2022-11-04T14:47:19;101021.56;;;18.29;55.90
72498;BME280;60522;52.536;5.702;2022-11-04T14:49:48;101035.72;;;18.34;55.94
72498;BME280;60522;52.536;5.702;2022-11-04T14:52:31;101048.56;;;18.34;55.39
72498;BME280;60522;52.536;5.702;2022-11-04T14:55:04;101047.69;;;18.30;55.67
72498;BME280;60522;52.536;5.702;2022-11-04T14:57:40;101051.53;;;18.29;55.92
72498;BME280;60522;52.536;5.702;2022-11-04T15:02:46;101059.25;;;18.27;56.19
72498;BME280;60522;52.536;5.702;2022-11-04T15:05:26;101058.38;;;18.23;56.15
72498;BME280;60522;52.536;5.702;2022-11-04T15:07:53;101059.84;;;18.20;56.30
72498;BME280;60522;52.536;5.702;2022-11-04T15:10:26;101061.88;;;18.23;56.23
72498;BME280;60522;52.536;5.702;2022-11-04T15:12:58;101070.75;;;18.20;56.04
72498;BME280;60522;52.536;5.702;2022-11-04T15:17:51;101070.22;;;18.14;56.34
72498;BME280;60522;52.536;5.702;2022-11-04T15:20:23;101081.53;;;18.16;56.45